Startpagina
METAR-TAF:

METAR-TAF

Vliegvelden :

Gustavus, Alaska, Verenigde Staten

breedte: 58-25N, lengte: 135-42W, hoogte: 10 m

Actueel weer

Dit bericht is 9 minuten geleden gemaakt, om 18:56 UTC
Wind 8 kt uit het noordnoordwesten
Temperatuur 6°C
Vochtigheid 28%
Druk 1034 hPa
Zicht: 16.1 km
Onbewolkt

METAR: PAGS 101856Z AUTO 33008KT 10SM CLR 06/M11 A3053 RMK AO2 SLP338 T00611106

Tijdstip: 11:05 (19:05 UTC)

Verwachting

Dit bericht is 1 uur en het 39 minuten geleden gemaakt, om 17:26 UTC
Verwachting geldig van 10 om 18 UTC tot 11 om 18 UTC
Wind 9 kt uit het westen
Zicht: 10 km
Onbewolkt

TAF: PAGS 101726Z 1018/1118 27009KT P6SM SKC AMD LTD TO CLD VIS AND WIND

Waarnemingen en weersverwachtingen van meer dan 4000 vliegvelden (METAR en TAF).

De beschikbare stations zijn de gele en rode punten op de kaart.

Ga met uw muis naar het station om de naam te zien.

Klik dan om waarnemingen en weersverwachtingen te zien.

kaart wijzigen: klik op de groene knoppen met een zwart kruis om in te zoomen, op de groene knop met een streepje om uit te zoomen of op de groene pijlen voor aangrenzende kaarten.


METAR-TAF: